createdAt,value
2023-03-27T00:02:26.702Z,98987.55
2023-03-27T00:04:54.893Z,98986.20
2023-03-27T00:07:22.860Z,98979.12
2023-03-27T00:09:50.727Z,98976.44
2023-03-27T00:12:18.496Z,98973.08
2023-03-27T00:14:46.437Z,98978.13
2023-03-27T00:17:14.636Z,98981.83
2023-03-27T00:19:42.508Z,98977.24
2023-03-27T00:22:10.878Z,98980.77
2023-03-27T00:24:38.658Z,98980.39
2023-03-27T00:27:06.773Z,98978.69
2023-03-27T00:29:34.785Z,98980.02
2023-03-27T00:32:02.603Z,98976.48
2023-03-27T00:34:31.542Z,98979.49
2023-03-27T00:36:59.502Z,98976.42
2023-03-27T00:39:28.494Z,98975.58
2023-03-27T00:41:56.373Z,98970.81
2023-03-27T00:44:27.721Z,98977.37
2023-03-27T00:46:57.259Z,98980.86
2023-03-27T00:49:29.333Z,98975.80
2023-03-27T00:51:59.291Z,98974.42
2023-03-27T00:54:32.175Z,98972.21
2023-03-27T00:57:03.764Z,98974.54
2023-03-27T00:59:37.053Z,98975.35
2023-03-27T01:02:06.723Z,98977.84
2023-03-27T01:04:37.431Z,98980.69
2023-03-27T01:07:07.684Z,98977.61
2023-03-27T01:09:35.751Z,98975.73
2023-03-27T01:12:06.700Z,98973.17
2023-03-27T01:14:58.514Z,98973.01
2023-03-27T01:17:35.799Z,98978.86
2023-03-27T01:20:34.999Z,98978.01
2023-03-27T01:23:59.646Z,98980.97
2023-03-27T01:26:40.363Z,98979.91
2023-03-27T01:29:11.198Z,98975.84
2023-03-27T01:32:04.668Z,98975.80
2023-03-27T01:35:01.817Z,98976.60
2023-03-27T01:37:47.994Z,98978.58
2023-03-27T01:40:21.404Z,98978.21
2023-03-27T01:42:51.933Z,98983.04
2023-03-27T01:45:36.557Z,98984.34
2023-03-27T01:48:15.750Z,98984.98
2023-03-27T01:51:09.835Z,98988.84
2023-03-27T01:53:47.018Z,98994.05
2023-03-27T01:56:26.653Z,98994.71
2023-03-27T01:58:59.757Z,98994.35
2023-03-27T02:01:34.362Z,98993.84
2023-03-27T02:04:04.985Z,98987.43
2023-03-27T02:06:41.932Z,98984.08
2023-03-27T02:09:12.457Z,98985.08
2023-03-27T02:11:47.119Z,98985.04
2023-03-27T02:14:21.914Z,98979.79
2023-03-27T02:16:55.122Z,98982.15
2023-03-27T02:20:00.509Z,98976.79
2023-03-27T02:22:38.813Z,98978.13
2023-03-27T02:25:27.305Z,98973.76
2023-03-27T02:28:21.488Z,98971.20
2023-03-27T02:31:33.841Z,98975.88
2023-03-27T02:34:33.919Z,98978.02
2023-03-27T02:37:09.484Z,98977.98
2023-03-27T02:39:54.523Z,98977.48
2023-03-27T02:42:58.381Z,98978.27
2023-03-27T02:45:54.562Z,98982.71
2023-03-27T02:48:41.223Z,98976.83
2023-03-27T02:51:25.592Z,98981.34
2023-03-27T02:53:58.652Z,98983.63
2023-03-27T02:56:28.645Z,98986.79
2023-03-27T02:59:04.013Z,98988.11
2023-03-27T03:01:34.133Z,98988.76
2023-03-27T03:04:10.887Z,98992.43
2023-03-27T03:06:42.450Z,98989.38
2023-03-27T03:09:10.587Z,98990.19
2023-03-27T03:11:46.362Z,98993.45
2023-03-27T03:14:14.845Z,98994.08
2023-03-27T03:16:43.056Z,98990.86
2023-03-27T03:19:10.990Z,98992.73
2023-03-27T03:21:39.976Z,98989.35
2023-03-27T03:24:07.902Z,98986.31
2023-03-27T03:26:35.683Z,98980.40
2023-03-27T03:29:04.605Z,98980.89
2023-03-27T03:31:44.537Z,98977.25
2023-03-27T03:34:14.602Z,98979.33
2023-03-27T03:36:45.009Z,98982.73
2023-03-27T03:39:12.960Z,98985.48
2023-03-27T03:41:40.867Z,98987.88
2023-03-27T03:44:10.228Z,98983.59
2023-03-27T03:46:38.380Z,98987.19
2023-03-27T03:49:06.720Z,98994.75
2023-03-27T03:51:36.233Z,98999.46
2023-03-27T03:54:06.816Z,99001.16
2023-03-27T03:56:34.949Z,99000.04
2023-03-27T03:59:02.984Z,98999.28
2023-03-27T04:01:31.094Z,99006.02
2023-03-27T04:03:59.117Z,99007.16
2023-03-27T04:06:27.045Z,99002.15
2023-03-27T04:08:54.915Z,98999.35
2023-03-27T04:11:23.085Z,99000.40
2023-03-27T04:13:51.052Z,99006.17
2023-03-27T04:16:19.269Z,99009.59
2023-03-27T04:18:50.786Z,99012.63
2023-03-27T04:21:18.750Z,99016.98
2023-03-27T04:23:51.375Z,99023.91
2023-03-27T04:26:26.628Z,99022.05
2023-03-27T04:28:54.536Z,99022.74
2023-03-27T04:31:22.419Z,99016.05
2023-03-27T04:33:52.554Z,99015.21
2023-03-27T04:36:20.931Z,99021.41
2023-03-27T04:38:49.477Z,99019.40
2023-03-27T04:41:17.995Z,99024.94
2023-03-27T04:43:46.345Z,99031.66
2023-03-27T04:46:14.241Z,99033.02
2023-03-27T04:48:42.787Z,99040.95
2023-03-27T04:51:10.899Z,99037.25
2023-03-27T04:53:38.944Z,99036.06
2023-03-27T04:56:07.582Z,99040.45
2023-03-27T04:58:37.475Z,99042.66
2023-03-27T05:01:05.891Z,99049.55
2023-03-27T05:03:35.380Z,99050.28
2023-03-27T05:06:04.857Z,99047.11
2023-03-27T05:08:32.843Z,99048.98
2023-03-27T05:11:00.725Z,99050.41
2023-03-27T05:13:29.200Z,99048.45
2023-03-27T05:15:59.433Z,99041.42
2023-03-27T05:18:30.970Z,99042.45
2023-03-27T05:20:59.467Z,99048.88
2023-03-27T05:23:27.746Z,99052.45
2023-03-27T05:25:59.799Z,99054.17
2023-03-27T05:28:29.688Z,99058.77
2023-03-27T05:30:58.087Z,99059.18
2023-03-27T05:33:26.805Z,99063.45
2023-03-27T05:35:54.925Z,99066.66
2023-03-27T05:38:24.749Z,99067.55
2023-03-27T05:40:52.729Z,99070.14
2023-03-27T05:43:20.582Z,99069.69
2023-03-27T05:45:48.453Z,99065.86
2023-03-27T05:48:16.314Z,99069.28
2023-03-27T05:50:44.252Z,99074.57
2023-03-27T05:53:12.177Z,99078.66
2023-03-27T05:55:40.507Z,99081.39
2023-03-27T05:58:11.766Z,99081.91
2023-03-27T06:00:44.494Z,99081.79
2023-03-27T06:03:13.907Z,99083.16
2023-03-27T06:05:42.673Z,99087.91
2023-03-27T06:08:13.258Z,99091.13
2023-03-27T06:10:43.554Z,99094.17
2023-03-27T06:13:13.784Z,99100.77
2023-03-27T06:15:43.395Z,99103.46
2023-03-27T06:18:11.589Z,99101.45
2023-03-27T06:20:39.755Z,99106.32
2023-03-27T06:23:09.259Z,99114.75
2023-03-27T06:25:39.309Z,99116.27
2023-03-27T06:28:09.781Z,99121.69
2023-03-27T06:30:39.036Z,99123.08
2023-03-27T06:33:10.775Z,99127.48
2023-03-27T06:35:39.729Z,99126.17
2023-03-27T06:38:07.841Z,99126.90
2023-03-27T06:40:36.706Z,99129.30
2023-03-27T06:43:07.068Z,99134.56
2023-03-27T06:45:43.505Z,99141.48
2023-03-27T06:48:19.299Z,99144.36
2023-03-27T06:50:52.284Z,99144.70
2023-03-27T06:53:27.486Z,99140.81
2023-03-27T06:55:57.684Z,99145.41
2023-03-27T06:58:25.866Z,99146.61
2023-03-27T07:00:53.665Z,99150.00
2023-03-27T07:03:22.938Z,99152.04
2023-03-27T07:05:50.924Z,99152.70
2023-03-27T07:08:24.176Z,99152.37
2023-03-27T07:11:10.917Z,99155.09
2023-03-27T07:13:41.421Z,99152.76
2023-03-27T07:16:12.465Z,99157.04
2023-03-27T07:18:42.158Z,99160.60
2023-03-27T07:21:10.124Z,99159.41
2023-03-27T07:23:37.878Z,99162.28
2023-03-27T07:26:06.818Z,99169.56
2023-03-27T07:28:38.597Z,99174.64
2023-03-27T07:31:20.103Z,99183.09
2023-03-27T07:33:59.145Z,99180.38
2023-03-27T07:36:27.155Z,99181.90
2023-03-27T07:38:55.025Z,99182.76
2023-03-27T07:41:23.104Z,99184.13
2023-03-27T07:43:51.029Z,99189.88
2023-03-27T07:46:18.913Z,99193.77
2023-03-27T07:48:46.725Z,99199.18
2023-03-27T07:51:14.569Z,99200.02
2023-03-27T07:53:43.768Z,99201.71
2023-03-27T07:56:11.737Z,99201.71
2023-03-27T07:58:39.688Z,99208.98
2023-03-27T08:01:07.977Z,99212.33
2023-03-27T08:03:38.066Z,99218.58
2023-03-27T08:06:07.531Z,99222.98
2023-03-27T08:08:35.314Z,99222.32
2023-03-27T08:11:04.348Z,99226.20
2023-03-27T08:13:32.226Z,99231.12
2023-03-27T08:16:09.670Z,99236.37
2023-03-27T08:18:38.181Z,99239.90
2023-03-27T08:21:08.549Z,99243.27
2023-03-27T08:23:38.128Z,99247.84
2023-03-27T08:26:06.914Z,99250.55
2023-03-27T08:28:36.582Z,99248.86
2023-03-27T08:31:11.531Z,99253.59
2023-03-27T08:33:41.949Z,99252.94
2023-03-27T08:36:11.600Z,99258.34
2023-03-27T08:38:40.161Z,99254.94
2023-03-27T08:41:08.045Z,99258.82
2023-03-27T08:43:40.034Z,99261.53
2023-03-27T08:46:21.014Z,99266.27
2023-03-27T08:49:05.349Z,99276.90
2023-03-27T08:51:54.179Z,99279.24
2023-03-27T08:54:36.035Z,99280.39
2023-03-27T08:57:19.849Z,99284.09
2023-03-27T08:59:47.988Z,99284.09
2023-03-27T09:02:48.705Z,99291.52
2023-03-27T09:05:22.826Z,99296.58
2023-03-27T09:07:50.602Z,99292.19
2023-03-27T09:10:23.486Z,99295.36
2023-03-27T09:13:11.419Z,99292.63
2023-03-27T09:16:11.469Z,99298.33
2023-03-27T09:18:43.913Z,99298.48
2023-03-27T09:21:18.234Z,99304.25
2023-03-27T09:23:47.130Z,99307.42
2023-03-27T09:26:22.567Z,99314.35
2023-03-27T09:29:00.258Z,99318.41
2023-03-27T09:31:33.189Z,99322.95
2023-03-27T09:34:05.635Z,99330.89
2023-03-27T09:36:37.368Z,99326.16
2023-03-27T09:39:08.270Z,99330.88
2023-03-27T09:41:44.772Z,99326.48
2023-03-27T09:44:25.690Z,99330.84
2023-03-27T09:47:16.649Z,99331.99
2023-03-27T09:49:53.425Z,99331.00
2023-03-27T09:52:32.963Z,99335.40
2023-03-27T09:55:00.849Z,99344.18
2023-03-27T09:57:36.174Z,99348.69
2023-03-27T10:00:33.800Z,99344.30
2023-03-27T10:03:16.788Z,99347.81
2023-03-27T10:05:47.031Z,99352.34
2023-03-27T10:08:32.502Z,99360.71
2023-03-27T10:11:06.468Z,99359.47
2023-03-27T10:13:35.026Z,99362.02
2023-03-27T10:16:06.652Z,99373.83
2023-03-27T10:18:42.354Z,99360.68
2023-03-27T10:21:16.781Z,99363.92
2023-03-27T10:23:49.923Z,99368.53
2023-03-27T10:26:21.724Z,99366.52
2023-03-27T10:28:51.792Z,99366.34
2023-03-27T10:31:28.692Z,99365.52
2023-03-27T10:34:00.466Z,99364.85
2023-03-27T10:36:33.775Z,99368.13
2023-03-27T10:39:11.832Z,99375.61
2023-03-27T10:41:40.713Z,99375.81
2023-03-27T10:44:20.349Z,99379.55
2023-03-27T10:46:48.326Z,99376.69
2023-03-27T10:49:34.456Z,99379.21
2023-03-27T10:52:08.546Z,99381.16
2023-03-27T10:54:54.185Z,99380.69
2023-03-27T10:57:34.514Z,99384.63
2023-03-27T11:00:22.658Z,99384.70
2023-03-27T11:02:57.704Z,99381.73
2023-03-27T11:05:37.450Z,99384.15
2023-03-27T11:08:13.382Z,99386.17
2023-03-27T11:10:44.442Z,99391.08
2023-03-27T11:13:24.567Z,99384.11
2023-03-27T11:16:12.158Z,99392.41
2023-03-27T11:18:47.643Z,99392.57
2023-03-27T11:21:26.257Z,99388.84
2023-03-27T11:24:00.403Z,99392.73
2023-03-27T11:26:44.415Z,99398.16
2023-03-27T11:29:21.603Z,99392.73
2023-03-27T11:31:52.807Z,99392.23
2023-03-27T11:34:38.075Z,99390.16
2023-03-27T11:37:18.270Z,99388.46
2023-03-27T11:40:01.556Z,99387.96
2023-03-27T11:42:32.648Z,99387.80
2023-03-27T11:45:04.680Z,99390.34
2023-03-27T11:47:52.699Z,99383.58
2023-03-27T11:50:42.833Z,99384.62
2023-03-27T11:53:26.265Z,99381.42
2023-03-27T11:56:11.228Z,99381.94
2023-03-27T11:59:12.939Z,99381.80
2023-03-27T12:01:51.307Z,99386.23
2023-03-27T12:04:45.785Z,99386.42
2023-03-27T12:07:48.113Z,99381.18
2023-03-27T12:10:28.979Z,99378.80
2023-03-27T12:13:40.707Z,99374.55
2023-03-27T12:16:28.221Z,99377.93
2023-03-27T12:19:28.301Z,99378.77
2023-03-27T12:22:24.012Z,99382.98
2023-03-27T12:24:59.934Z,99384.66
2023-03-27T12:27:47.681Z,99391.58
2023-03-27T12:31:09.930Z,99394.77
2023-03-27T12:34:02.069Z,99391.02
2023-03-27T12:36:38.191Z,99393.05
2023-03-27T12:39:24.626Z,99393.05
2023-03-27T12:41:53.803Z,99396.98
2023-03-27T12:44:32.370Z,99388.89
2023-03-27T12:47:26.454Z,99394.66
2023-03-27T12:49:59.077Z,99392.66
2023-03-27T12:52:28.898Z,99393.35
2023-03-27T12:55:19.095Z,99401.46
2023-03-27T12:57:47.358Z,99402.80
2023-03-27T13:00:25.808Z,99409.23
2023-03-27T13:03:29.304Z,99405.84
2023-03-27T13:06:12.833Z,99418.67
2023-03-27T13:08:49.911Z,99417.98
2023-03-27T13:11:36.178Z,99426.45
2023-03-27T13:14:10.807Z,99432.23
2023-03-27T13:17:09.737Z,99431.89
2023-03-27T13:19:51.925Z,99436.81
2023-03-27T13:22:23.779Z,99439.33
2023-03-27T13:25:16.199Z,99443.20
2023-03-27T13:27:49.094Z,99444.36
2023-03-27T13:30:56.413Z,99452.27
2023-03-27T13:33:39.392Z,99461.14
2023-03-27T13:36:14.625Z,99463.77
2023-03-27T13:38:55.196Z,99472.05
2023-03-27T13:41:53.474Z,99470.64
2023-03-27T13:44:34.131Z,99480.27
2023-03-27T13:47:26.506Z,99484.68
2023-03-27T13:50:16.839Z,99501.39
2023-03-27T13:52:47.706Z,99507.95
2023-03-27T13:55:52.963Z,99518.27
2023-03-27T13:58:26.552Z,99527.36
2023-03-27T14:01:21.161Z,99529.21
2023-03-27T14:03:49.240Z,99537.12
2023-03-27T14:06:42.371Z,99545.04
2023-03-27T14:09:35.786Z,99538.23
2023-03-27T14:12:25.722Z,99544.45
2023-03-27T14:15:21.187Z,99554.73
2023-03-27T14:17:58.021Z,99561.80
2023-03-27T14:20:30.083Z,99563.30
2023-03-27T14:23:00.948Z,99563.94
2023-03-27T14:25:57.730Z,99562.53
2023-03-27T14:28:34.765Z,99562.86
2023-03-27T14:31:08.482Z,99565.89
2023-03-27T14:33:39.266Z,99561.98
2023-03-27T14:36:07.595Z,99573.77
2023-03-27T14:38:37.555Z,99572.58
2023-03-27T14:41:17.303Z,99578.90
2023-03-27T14:43:48.345Z,99587.99
2023-03-27T14:46:17.231Z,99588.98
2023-03-27T14:48:50.768Z,99601.83
2023-03-27T14:51:21.362Z,99601.13
2023-03-27T14:53:51.786Z,99602.25
2023-03-27T14:56:37.528Z,99610.69
2023-03-27T14:59:12.004Z,99612.52
2023-03-27T15:01:41.432Z,99616.27
2023-03-27T15:04:12.280Z,99620.73
2023-03-27T15:06:41.907Z,99619.15
2023-03-27T15:09:23.552Z,99625.77
2023-03-27T15:11:56.532Z,99632.98
2023-03-27T15:14:27.853Z,99637.21
2023-03-27T15:17:20.300Z,99651.36
2023-03-27T15:19:53.442Z,99660.89
2023-03-27T15:22:41.264Z,99658.50
2023-03-27T15:25:31.099Z,99664.38
2023-03-27T15:28:06.237Z,99660.48
2023-03-27T15:30:43.697Z,99668.38
2023-03-27T15:33:20.439Z,99672.77
2023-03-27T15:35:56.572Z,99669.59
2023-03-27T15:38:29.541Z,99674.81
2023-03-27T15:41:17.389Z,99682.05
2023-03-27T15:43:45.180Z,99683.22
2023-03-27T15:46:15.950Z,99679.64
2023-03-27T15:48:46.246Z,99685.09
2023-03-27T15:51:29.422Z,99692.38
2023-03-27T15:53:58.113Z,99692.36
2023-03-27T15:56:37.355Z,99698.90
2023-03-27T15:59:08.419Z,99710.16
2023-03-27T16:01:42.315Z,99709.36
2023-03-27T16:04:16.538Z,99706.75
2023-03-27T16:06:54.703Z,99711.24
2023-03-27T16:09:28.716Z,99717.13
2023-03-27T16:11:58.530Z,99723.45
2023-03-27T16:14:41.350Z,99728.17
2023-03-27T16:17:19.267Z,99724.74
2023-03-27T16:19:54.673Z,99734.66
2023-03-27T16:22:25.419Z,99740.05
2023-03-27T16:24:54.619Z,99753.73
2023-03-27T16:27:27.544Z,99760.39
2023-03-27T16:29:55.472Z,99777.15
2023-03-27T16:32:23.835Z,99771.58
2023-03-27T16:34:51.812Z,99778.04
2023-03-27T16:37:23.098Z,99786.26
2023-03-27T16:39:51.357Z,99789.98
2023-03-27T16:42:25.882Z,99798.35
2023-03-27T16:44:54.436Z,99801.41
2023-03-27T16:47:23.472Z,99807.98
2023-03-27T16:50:07.991Z,99811.30
2023-03-27T16:52:40.901Z,99815.21
2023-03-27T16:55:09.148Z,99819.97
2023-03-27T16:57:36.953Z,99828.66
2023-03-27T17:00:06.511Z,99832.13
2023-03-27T17:02:36.633Z,99835.75
2023-03-27T17:05:06.965Z,99838.82
2023-03-27T17:07:35.504Z,99841.05
2023-03-27T17:10:04.056Z,99848.20
2023-03-27T17:12:32.544Z,99856.58
2023-03-27T17:15:00.620Z,99863.91
2023-03-27T17:17:30.485Z,99866.85
2023-03-27T17:19:58.578Z,99869.58
2023-03-27T17:22:29.989Z,99873.91
2023-03-27T17:25:01.259Z,99875.71
2023-03-27T17:27:30.026Z,99883.95
2023-03-27T17:29:58.387Z,99889.30
2023-03-27T17:32:27.102Z,99893.30
2023-03-27T17:34:55.419Z,99894.20
2023-03-27T17:37:24.268Z,99897.50
2023-03-27T17:39:52.085Z,99904.30
2023-03-27T17:42:20.534Z,99910.56
2023-03-27T17:44:48.878Z,99917.86
2023-03-27T17:47:16.765Z,99921.67
2023-03-27T17:49:45.285Z,99926.36
2023-03-27T17:52:14.248Z,99936.91
2023-03-27T17:54:42.158Z,99927.98
2023-03-27T17:57:10.333Z,99931.52
2023-03-27T17:59:38.572Z,99932.46
2023-03-27T18:02:07.437Z,99939.86
2023-03-27T18:04:36.592Z,99944.88
2023-03-27T18:07:04.494Z,99948.39
2023-03-27T18:09:32.511Z,99954.04
2023-03-27T18:12:00.375Z,99956.23
2023-03-27T18:14:28.327Z,99962.02
2023-03-27T18:16:56.144Z,99958.30
2023-03-27T18:19:25.304Z,99960.70
2023-03-27T18:21:53.091Z,99957.48
2023-03-27T18:24:21.099Z,99961.61
2023-03-27T18:26:49.206Z,99963.64
2023-03-27T18:29:17.142Z,99970.59
2023-03-27T18:31:45.066Z,99971.48
2023-03-27T18:34:13.132Z,99972.38
2023-03-27T18:36:41.143Z,99979.21
2023-03-27T18:39:08.981Z,99980.73
2023-03-27T18:41:38.022Z,99981.98
2023-03-27T18:44:06.154Z,99985.45
2023-03-27T18:46:34.066Z,99985.89
2023-03-27T18:49:10.184Z,99985.77
2023-03-27T18:51:45.560Z,99986.71
2023-03-27T18:54:13.568Z,99985.21
2023-03-27T18:56:41.627Z,99991.95
2023-03-27T18:59:11.215Z,99993.88
2023-03-27T19:01:39.015Z,99995.15
2023-03-27T19:04:06.897Z,99998.56
2023-03-27T19:06:36.255Z,100001.12
2023-03-27T19:09:05.646Z,99998.02
2023-03-27T19:11:33.471Z,100006.35
2023-03-27T19:14:01.274Z,100008.34
2023-03-27T19:16:29.485Z,100013.21
2023-03-27T19:18:57.269Z,100012.91
2023-03-27T19:21:27.300Z,100014.82
2023-03-27T19:23:55.096Z,100016.90
2023-03-27T19:26:22.856Z,100016.20
2023-03-27T19:28:50.641Z,100022.13
2023-03-27T19:31:18.606Z,100022.83
2023-03-27T19:33:46.496Z,100031.13
2023-03-27T19:36:14.358Z,100032.48
2023-03-27T19:38:46.100Z,100032.70
2023-03-27T19:41:14.979Z,100033.90
2023-03-27T19:43:42.921Z,100034.81
2023-03-27T19:46:16.114Z,100037.86
2023-03-27T19:48:47.818Z,100037.70
2023-03-27T19:51:15.976Z,100038.56
2023-03-27T19:53:43.783Z,100043.30
2023-03-27T19:56:11.677Z,100046.05
2023-03-27T19:58:39.451Z,100044.42
2023-03-27T20:01:07.329Z,100046.67
2023-03-27T20:03:38.589Z,100042.92
2023-03-27T20:06:12.100Z,100049.77
2023-03-27T20:08:44.556Z,100048.45
2023-03-27T20:11:12.431Z,100053.33
2023-03-27T20:13:52.899Z,100056.77
2023-03-27T20:16:28.233Z,100056.02
2023-03-27T20:19:04.230Z,100059.05
2023-03-27T20:21:39.617Z,100059.88
2023-03-27T20:24:10.133Z,100064.46
2023-03-27T20:26:39.940Z,100063.05
2023-03-27T20:29:13.013Z,100067.17
2023-03-27T20:31:41.005Z,100067.33
2023-03-27T20:34:09.933Z,100070.27
2023-03-27T20:36:39.187Z,100065.30
2023-03-27T20:39:08.066Z,100062.48
2023-03-27T20:41:39.935Z,100064.23
2023-03-27T20:44:31.984Z,100068.79
2023-03-27T20:47:03.273Z,100067.48
2023-03-27T20:49:40.791Z,100069.73
2023-03-27T20:52:11.952Z,100066.02
2023-03-27T20:54:39.944Z,100066.88
2023-03-27T20:57:08.658Z,100067.16
2023-03-27T20:59:36.668Z,100068.55
2023-03-27T21:02:05.280Z,100068.45
2023-03-27T21:04:33.273Z,100070.43
2023-03-27T21:07:01.176Z,100070.31
2023-03-27T21:09:29.036Z,100075.52
2023-03-27T21:11:56.920Z,100074.55
2023-03-27T21:14:24.755Z,100066.44
2023-03-27T21:16:52.684Z,100065.19
2023-03-27T21:19:20.705Z,100064.59
2023-03-27T21:21:48.508Z,100069.46
2023-03-27T21:24:16.806Z,100070.77
2023-03-27T21:26:44.556Z,100066.30
2023-03-27T21:29:12.768Z,100069.21
2023-03-27T21:31:41.417Z,100071.47
2023-03-27T21:34:09.256Z,100071.20
2023-03-27T21:36:38.053Z,100076.30
2023-03-27T21:39:06.061Z,100074.09
2023-03-27T21:41:33.880Z,100074.44
2023-03-27T21:44:01.982Z,100070.80
2023-03-27T21:46:29.843Z,100073.45
2023-03-27T21:48:57.656Z,100066.23
2023-03-27T21:51:25.758Z,100066.09
2023-03-27T21:53:53.604Z,100065.19
2023-03-27T21:56:21.519Z,100063.58
2023-03-27T21:58:49.252Z,100062.79
2023-03-27T22:01:17.159Z,100063.59
2023-03-27T22:03:44.992Z,100060.48
2023-03-27T22:06:13.571Z,100058.52
2023-03-27T22:08:43.023Z,100058.45
2023-03-27T22:11:12.409Z,100057.50
2023-03-27T22:13:41.956Z,100054.76
2023-03-27T22:16:12.407Z,100059.84
2023-03-27T22:18:41.585Z,100058.73
2023-03-27T22:21:17.659Z,100057.83
2023-03-27T22:23:46.125Z,100055.65
2023-03-27T22:26:13.996Z,100054.70
2023-03-27T22:28:41.772Z,100057.35
2023-03-27T22:31:09.973Z,100054.06
2023-03-27T22:33:38.411Z,100056.30
2023-03-27T22:36:08.757Z,100050.36
2023-03-27T22:38:36.776Z,100051.42
2023-03-27T22:41:06.214Z,100051.27
2023-03-27T22:43:34.590Z,100053.13
2023-03-27T22:46:07.600Z,100055.48
2023-03-27T22:48:35.516Z,100055.41
2023-03-27T22:51:04.467Z,100059.89
2023-03-27T22:53:32.767Z,100058.80
2023-03-27T22:56:01.869Z,100061.77
2023-03-27T22:58:30.692Z,100062.05
2023-03-27T23:00:58.752Z,100063.61
2023-03-27T23:03:27.818Z,100069.51
2023-03-27T23:05:56.065Z,100071.43
2023-03-27T23:08:27.345Z,100072.88
2023-03-27T23:10:57.543Z,100075.52
2023-03-27T23:13:27.422Z,100077.26
2023-03-27T23:15:55.887Z,100080.17
2023-03-27T23:18:25.439Z,100083.95
2023-03-27T23:20:58.378Z,100080.41
2023-03-27T23:23:27.777Z,100082.54
2023-03-27T23:25:57.924Z,100084.85
2023-03-27T23:28:29.146Z,100084.88
2023-03-27T23:30:59.375Z,100084.89
2023-03-27T23:33:29.022Z,100087.55
2023-03-27T23:36:03.006Z,100086.42
2023-03-27T23:38:30.940Z,100087.70
2023-03-27T23:41:01.184Z,100090.33
2023-03-27T23:43:30.456Z,100089.30
2023-03-27T23:46:01.996Z,100091.36
2023-03-27T23:48:30.905Z,100094.91
2023-03-27T23:50:58.640Z,100093.77
2023-03-27T23:53:28.366Z,100091.93
2023-03-27T23:55:58.146Z,100089.49
2023-03-27T23:58:28.897Z,100084.96
